Time;durP1;ratioP1;P1;durP2;ratioP2;P2;SDS_P1;SDS_P2;PMS_P1;PMS_P2;Temp;Humidity;BMP_temperature;BMP_pressure;BME280_temperature;BME280_humidity;BME280_pressure;Samples;Min_cycle;Max_cycle;Signal;HPM_P1;HPM_P2
2022/05/01 00:02:06;;;;;;;;;;;12.50;94.40;;;;;;4932883;29;19938;-85
2022/05/01 00:04:37;;;;;;;;;;;12.50;94.20;;;;;;4949636;28;19926;-85
2022/05/01 00:07:04;;;;;;;;;;;12.50;94.40;;;;;;4949967;28;19934;-85
2022/05/01 00:09:41;;;;;;;;;;;12.50;94.30;;;;;;4919035;28;19960;-86
2022/05/01 00:12:12;;;;;;;;;;;12.50;94.30;;;;;;4961272;28;19927;-85
2022/05/01 00:14:47;;;;;;;;;;;12.50;94.30;;;;;;4984161;28;19926;-85
2022/05/01 00:17:23;;;;;;;;;;;12.50;94.10;;;;;;4969721;28;19930;-85
2022/05/01 00:19:55;;;;;;;;;;;12.50;94.00;;;;;;4942927;28;19914;-84
2022/05/01 00:22:23;;;;;;;;;;;12.50;94.10;;;;;;4953486;29;19931;-86
2022/05/01 00:24:50;;;;;;;;;;;12.50;94.20;;;;;;4966223;28;19930;-85
2022/05/01 00:27:28;;;;;;;;;;;12.50;94.10;;;;;;4970707;28;19930;-85
2022/05/01 00:29:57;;;;;;;;;;;12.50;93.90;;;;;;4980491;28;19941;-85
2022/05/01 00:36:25;;;;;;;;;;;12.40;94.00;;;;;;4953378;28;19926;-85
2022/05/01 00:38:05;;;;;;;;;;;12.50;93.90;;;;;;4951019;29;19927;-85
2022/05/01 00:40:32;;;;;;;;;;;12.50;93.80;;;;;;4934226;29;19927;-85
2022/05/01 00:43:03;;;;;;;;;;;12.50;93.80;;;;;;4932630;28;19937;-85
2022/05/01 00:46:08;;;;;;;;;;;12.50;93.70;;;;;;4953113;28;19933;-85
2022/05/01 00:49:04;;;;;;;;;;;12.50;93.70;;;;;;4957611;28;19937;-85
2022/05/01 00:51:55;;;;;;;;;;;12.50;93.70;;;;;;4959267;28;19937;-85
2022/05/01 00:54:23;;;;;;;;;;;12.50;93.70;;;;;;4952569;29;20313;-85
2022/05/01 00:57:14;;;;;;;;;;;12.50;93.60;;;;;;4935898;29;19927;-85
2022/05/01 00:59:45;;;;;;;;;;;12.50;93.60;;;;;;4935735;29;19930;-85
2022/05/01 01:02:17;;;;;;;;;;;12.50;93.40;;;;;;4936900;29;19930;-85
2022/05/01 01:04:51;;;;;;;;;;;12.50;93.30;;;;;;4936860;28;19933;-85
2022/05/01 01:07:34;;;;;;;;;;;12.50;93.10;;;;;;4940148;29;19931;-85
2022/05/01 01:10:17;;;;;;;;;;;12.50;93.10;;;;;;4955498;29;19938;-86
2022/05/01 01:13:04;;;;;;;;;;;12.60;93.00;;;;;;4942079;28;19945;-85
2022/05/01 01:15:44;;;;;;;;;;;12.50;92.70;;;;;;4979552;28;19940;-84
2022/05/01 01:18:11;;;;;;;;;;;12.50;92.70;;;;;;4986075;28;19936;-84
2022/05/01 01:20:45;;;;;;;;;;;12.60;92.60;;;;;;4957079;28;20240;-86
2022/05/01 01:23:38;;;;;;;;;;;12.60;92.40;;;;;;4957837;28;20409;-86
2022/05/01 01:26:06;;;;;;;;;;;12.60;92.30;;;;;;4963413;28;19934;-85
2022/05/01 01:28:38;;;;;;;;;;;11.20;91.80;;;;;;4922623;29;19927;-85
2022/05/01 01:34:15;;;;;;;;;;;12.60;92.00;;;;;;4975540;28;19932;-84
2022/05/01 01:36:46;;;;;;;;;;;12.60;91.90;;;;;;4993602;28;19925;-85
2022/05/01 01:39:28;;;;;;;;;;;12.60;91.80;;;;;;4958744;28;19933;-84
2022/05/01 01:42:07;;;;;;;;;;;12.60;91.80;;;;;;4958711;28;19926;-85
2022/05/01 01:44:37;;;;;;;;;;;12.60;91.90;;;;;;4971653;28;20547;-85
2022/05/01 01:47:11;;;;;;;;;;;12.40;91.80;;;;;;4989205;28;19952;-86
2022/05/01 01:49:44;;;;;;;;;;;12.50;92.00;;;;;;4958879;28;19926;-85
2022/05/01 01:52:24;;;;;;;;;;;12.50;92.00;;;;;;4937333;29;19926;-86
2022/05/01 01:55:38;;;;;;;;;;;12.50;91.90;;;;;;4611391;28;10000125;-84
2022/05/01 02:01:10;;;;;;;;;;;12.40;92.00;;;;;;4958319;28;19974;-85
2022/05/01 02:03:59;;;;;;;;;;;12.50;92.20;;;;;;4953385;28;19934;-86
2022/05/01 02:06:29;;;;;;;;;;;12.50;92.40;;;;;;4951361;28;19933;-85
2022/05/01 02:09:07;;;;;;;;;;;12.50;92.40;;;;;;4940708;29;19938;-85
2022/05/01 02:11:38;;;;;;;;;;;12.50;92.50;;;;;;4965020;28;20313;-86
2022/05/01 02:14:18;;;;;;;;;;;12.10;92.40;;;;;;4972438;28;20428;-85
2022/05/01 02:17:28;;;;;;;;;;;12.40;92.50;;;;;;4955366;28;19926;-86
2022/05/01 02:19:57;;;;;;;;;;;12.40;92.60;;;;;;4972227;28;19930;-85
2022/05/01 02:22:24;;;;;;;;;;;12.40;92.60;;;;;;4955358;28;20305;-86
2022/05/01 02:24:53;;;;;;;;;;;12.40;92.60;;;;;;4954657;28;20528;-85
2022/05/01 02:27:23;;;;;;;;;;;11.50;92.40;;;;;;4954500;28;20343;-85
2022/05/01 02:29:50;;;;;;;;;;;12.40;92.70;;;;;;4972312;28;20385;-85
2022/05/01 02:32:18;;;;;;;;;;;12.40;92.70;;;;;;4951240;29;20031;-86
2022/05/01 02:34:46;;;;;;;;;;;12.40;92.70;;;;;;4937605;28;20034;-86
2022/05/01 02:37:13;;;;;;;;;;;12.10;92.60;;;;;;4954725;28;19926;-84
2022/05/01 02:39:41;;;;;;;;;;;12.40;92.60;;;;;;4956903;28;19930;-85
2022/05/01 02:42:25;;;;;;;;;;;12.40;92.80;;;;;;4947547;28;19930;-84
2022/05/01 02:44:53;;;;;;;;;;;12.30;92.80;;;;;;4954791;28;19926;-85
2022/05/01 02:47:21;;;;;;;;;;;12.40;92.70;;;;;;4954633;28;19933;-85
2022/05/01 02:49:52;;;;;;;;;;;12.30;92.80;;;;;;4954160;28;19930;-85
2022/05/01 02:52:23;;;;;;;;;;;12.30;92.80;;;;;;4923066;28;19933;-84
2022/05/01 02:55:00;;;;;;;;;;;12.20;92.70;;;;;;4951389;28;19934;-86
2022/05/01 02:57:28;;;;;;;;;;;12.20;92.70;;;;;;4971833;28;19949;-85
2022/05/01 03:00:01;;;;;;;;;;;12.20;92.90;;;;;;4954396;28;19926;-86
2022/05/01 03:02:37;;;;;;;;;;;12.20;92.90;;;;;;4972052;28;19933;-84
2022/05/01 03:05:05;;;;;;;;;;;12.20;93.00;;;;;;4947359;29;19926;-85
2022/05/01 03:07:34;;;;;;;;;;;12.20;93.00;;;;;;4945597;28;19930;-84
2022/05/01 03:10:02;;;;;;;;;;;12.20;92.90;;;;;;4954119;28;19926;-84
2022/05/01 03:12:30;;;;;;;;;;;12.10;93.00;;;;;;4970287;28;19931;-84
2022/05/01 03:14:57;;;;;;;;;;;12.10;93.00;;;;;;4971816;28;20298;-85
2022/05/01 03:22:10;;;;;;;;;;;12.10;93.00;;;;;;4971378;28;19930;-85
2022/05/01 03:23:13;;;;;;;;;;;12.10;93.00;;;;;;4927580;29;19926;-85
2022/05/01 03:25:41;;;;;;;;;;;12.10;92.90;;;;;;4953981;28;19926;-85
2022/05/01 03:28:16;;;;;;;;;;;12.10;92.90;;;;;;4971495;28;19933;-85
2022/05/01 03:30:44;;;;;;;;;;;12.10;92.90;;;;;;4953573;28;19929;-85
2022/05/01 03:33:12;;;;;;;;;;;12.10;92.90;;;;;;4973198;28;19926;-85
2022/05/01 03:35:39;;;;;;;;;;;12.00;92.90;;;;;;4944241;29;19930;-85
2022/05/01 03:38:07;;;;;;;;;;;12.00;92.90;;;;;;4953038;29;19926;-85
2022/05/01 03:40:47;;;;;;;;;;;12.10;92.90;;;;;;4953443;28;19927;-85
2022/05/01 03:43:29;;;;;;;;;;;12.10;92.80;;;;;;4939856;28;19931;-84
2022/05/01 03:45:59;;;;;;;;;;;12.10;92.70;;;;;;4986458;28;19937;-85
2022/05/01 03:48:27;;;;;;;;;;;12.10;92.70;;;;;;4961155;28;20317;-85
2022/05/01 03:54:03;;;;;;;;;;;12.10;92.60;;;;;;4976521;28;20365;-84
2022/05/01 03:56:32;;;;;;;;;;;12.10;92.60;;;;;;4958768;28;19926;-84
2022/05/01 03:59:05;;;;;;;;;;;12.10;92.60;;;;;;4954700;28;19926;-84
2022/05/01 04:01:33;;;;;;;;;;;12.10;92.40;;;;;;4953039;29;20290;-85
2022/05/01 04:04:09;;;;;;;;;;;12.10;92.40;;;;;;4960121;28;19933;-84
2022/05/01 04:06:46;;;;;;;;;;;12.10;92.40;;;;;;4951819;28;19927;-84
2022/05/01 04:09:14;;;;;;;;;;;12.10;92.40;;;;;;4934059;29;19934;-84
2022/05/01 04:11:41;;;;;;;;;;;12.10;92.30;;;;;;4922696;29;19926;-85
2022/05/01 04:14:19;;;;;;;;;;;12.00;92.30;;;;;;4934627;29;19933;-84
2022/05/01 04:16:58;;;;;;;;;;;12.10;92.20;;;;;;4965094;28;20286;-85
2022/05/01 04:19:27;;;;;;;;;;;12.10;92.20;;;;;;4970882;28;20354;-84
2022/05/01 04:22:02;;;;;;;;;;;12.10;92.20;;;;;;4952917;28;19926;-85
2022/05/01 04:24:38;;;;;;;;;;;12.10;92.10;;;;;;4974579;28;19934;-84
2022/05/01 04:27:13;;;;;;;;;;;12.10;92.10;;;;;;4974610;28;19933;-84
2022/05/01 04:29:44;;;;;;;;;;;12.10;92.10;;;;;;4957620;28;19930;-84
2022/05/01 04:32:16;;;;;;;;;;;12.10;91.90;;;;;;4974680;28;19954;-84
2022/05/01 04:34:45;;;;;;;;;;;12.10;92.00;;;;;;4941494;28;19988;-84
2022/05/01 04:37:15;;;;;;;;;;;12.10;91.90;;;;;;4957096;28;19926;-85
2022/05/01 04:39:52;;;;;;;;;;;12.10;91.90;;;;;;4974336;28;19930;-84
2022/05/01 04:42:20;;;;;;;;;;;12.10;91.80;;;;;;4986746;28;19954;-85
2022/05/01 04:47:57;;;;;;;;;;;12.10;91.80;;;;;;4952626;29;20281;-85
2022/05/01 04:50:26;;;;;;;;;;;12.10;91.80;;;;;;4922100;29;19933;-85
2022/05/01 04:52:55;;;;;;;;;;;12.10;92.00;;;;;;4956680;29;19933;-85
2022/05/01 04:55:23;;;;;;;;;;;12.10;92.10;;;;;;4956229;29;19930;-84
2022/05/01 04:57:51;;;;;;;;;;;12.10;91.80;;;;;;4955510;29;20293;-84
2022/05/01 05:00:25;;;;;;;;;;;12.10;91.70;;;;;;4954150;28;20389;-85
2022/05/01 05:02:53;;;;;;;;;;;12.10;91.80;;;;;;4955898;29;20085;-84
2022/05/01 05:05:24;;;;;;;;;;;12.00;91.70;;;;;;4950887;28;19937;-84
2022/05/01 05:07:56;;;;;;;;;;;12.10;91.70;;;;;;4955415;28;20381;-84
2022/05/01 05:10:26;;;;;;;;;;;12.10;91.70;;;;;;4973944;28;19926;-85
2022/05/01 05:12:58;;;;;;;;;;;12.10;91.80;;;;;;4957222;28;19937;-85
2022/05/01 05:15:34;;;;;;;;;;;12.10;91.60;;;;;;4972492;28;20487;-85
2022/05/01 05:18:02;;;;;;;;;;;12.20;91.70;;;;;;4939214;28;20301;-85
2022/05/01 05:20:30;;;;;;;;;;;12.20;91.60;;;;;;4954640;28;19926;-85
2022/05/01 05:22:58;;;;;;;;;;;12.20;91.50;;;;;;4971880;28;19942;-84
2022/05/01 05:25:33;;;;;;;;;;;12.20;91.40;;;;;;4971032;28;20389;-85
2022/05/01 05:29:04;;;;;;;;;;;12.20;91.40;;;;;;4971443;28;19926;-84
2022/05/01 05:31:12;;;;;;;;;;;12.20;91.40;;;;;;4928902;28;19926;-85
2022/05/01 05:33:40;;;;;;;;;;;12.40;91.40;;;;;;4970184;28;19933;-86
2022/05/01 05:36:49;;;;;;;;;;;12.30;91.30;;;;;;4951745;29;20396;-85
2022/05/01 05:39:22;;;;;;;;;;;12.30;91.30;;;;;;4929924;29;19930;-84
2022/05/01 05:41:50;;;;;;;;;;;12.30;91.30;;;;;;4942326;28;19933;-85
2022/05/01 05:44:20;;;;;;;;;;;12.30;91.20;;;;;;4953027;28;20385;-85
2022/05/01 05:47:04;;;;;;;;;;;12.30;91.20;;;;;;4968807;28;19937;-85
2022/05/01 05:49:32;;;;;;;;;;;12.30;91.20;;;;;;4973876;28;19936;-85
2022/05/01 05:52:00;;;;;;;;;;;12.30;91.10;;;;;;4959366;28;19937;-84
2022/05/01 05:54:27;;;;;;;;;;;12.40;91.20;;;;;;4934638;29;19934;-85
2022/05/01 05:56:58;;;;;;;;;;;12.40;91.20;;;;;;4938327;28;20543;-84
2022/05/01 05:59:26;;;;;;;;;;;12.50;91.20;;;;;;4971229;28;19941;-84
2022/05/01 06:01:53;;;;;;;;;;;12.50;91.20;;;;;;4974396;28;19937;-85
2022/05/01 06:04:21;;;;;;;;;;;12.50;91.20;;;;;;4958270;28;20331;-84
2022/05/01 06:06:48;;;;;;;;;;;13.80;91.50;;;;;;4978459;28;20270;-86
2022/05/01 06:09:16;;;;;;;;;;;12.60;91.20;;;;;;4945919;28;19933;-85
2022/05/01 06:11:45;;;;;;;;;;;12.70;91.20;;;;;;4939411;28;19951;-85
2022/05/01 06:14:12;;;;;;;;;;;12.70;91.00;;;;;;4953186;28;19930;-85
2022/05/01 06:16:40;;;;;;;;;;;12.70;91.00;;;;;;4971241;28;19930;-84
2022/05/01 06:19:08;;;;;;;;;;;12.80;91.00;;;;;;4953831;28;19926;-84
2022/05/01 06:21:35;;;;;;;;;;;12.80;90.90;;;;;;4971453;28;19930;-84
2022/05/01 06:24:03;;;;;;;;;;;12.90;90.90;;;;;;4953523;28;19934;-84
2022/05/01 06:26:30;;;;;;;;;;;12.90;90.70;;;;;;4939032;28;19926;-84
2022/05/01 06:28:59;;;;;;;;;;;13.00;90.80;;;;;;4970357;28;20444;-85
2022/05/01 06:31:27;;;;;;;;;;;13.00;90.80;;;;;;4970896;28;20292;-84
2022/05/01 06:33:55;;;;;;;;;;;13.10;90.70;;;;;;4969738;28;19930;-85
2022/05/01 06:36:23;;;;;;;;;;;13.10;90.70;;;;;;4971440;28;19930;-84
2022/05/01 06:38:53;;;;;;;;;;;13.10;90.40;;;;;;4970681;28;19930;-85
2022/05/01 06:41:20;;;;;;;;;;;13.20;90.50;;;;;;4965564;28;19927;-84
2022/05/01 06:43:47;;;;;;;;;;;13.10;90.30;;;;;;4951315;29;19926;-85
2022/05/01 06:46:15;;;;;;;;;;;13.30;90.20;;;;;;4954652;28;19938;-83
2022/05/01 06:48:43;;;;;;;;;;;13.30;90.20;;;;;;4624007;28;10000577;-85
2022/05/01 06:51:10;;;;;;;;;;;13.30;90.20;;;;;;4953188;28;19926;-84
2022/05/01 06:53:38;;;;;;;;;;;13.40;90.10;;;;;;4953117;28;20397;-85
2022/05/01 06:56:06;;;;;;;;;;;13.70;90.10;;;;;;4968813;28;19934;-84
2022/05/01 06:58:35;;;;;;;;;;;13.50;90.10;;;;;;4953336;28;19933;-85
2022/05/01 07:01:02;;;;;;;;;;;13.60;90.00;;;;;;4970121;28;19930;-84
2022/05/01 07:03:29;;;;;;;;;;;13.70;89.90;;;;;;4953306;28;20544;-85
2022/05/01 07:06:00;;;;;;;;;;;13.70;89.70;;;;;;4953226;28;19926;-85
2022/05/01 07:08:28;;;;;;;;;;;13.80;89.20;;;;;;4970765;28;19926;-84
2022/05/01 07:10:55;;;;;;;;;;;14.00;88.50;;;;;;4969695;28;19926;-83
2022/05/01 07:13:24;;;;;;;;;;;14.00;88.50;;;;;;4973217;28;19930;-84
2022/05/01 07:15:51;;;;;;;;;;;13.80;88.50;;;;;;4938264;28;19956;-84
2022/05/01 07:18:19;;;;;;;;;;;14.20;87.90;;;;;;4969997;28;19937;-85
2022/05/01 07:20:48;;;;;;;;;;;14.40;87.80;;;;;;4970304;28;19926;-84
2022/05/01 07:23:15;;;;;;;;;;;14.50;87.00;;;;;;4970650;28;19926;-84
2022/05/01 07:25:44;;;;;;;;;;;14.60;87.00;;;;;;4952292;28;22124;-85
2022/05/01 07:28:12;;;;;;;;;;;14.80;85.90;;;;;;4953107;28;20384;-84
2022/05/01 07:30:39;;;;;;;;;;;14.80;86.80;;;;;;4937135;28;20328;-84
2022/05/01 07:33:07;;;;;;;;;;;14.90;84.00;;;;;;4953455;28;19926;-85
2022/05/01 07:35:34;;;;;;;;;;;14.80;85.50;;;;;;4961194;28;19933;-85
2022/05/01 07:38:02;;;;;;;;;;;15.10;84.10;;;;;;4951374;29;19934;-84
2022/05/01 07:40:29;;;;;;;;;;;15.20;82.00;;;;;;4958658;28;19926;-84
2022/05/01 07:42:58;;;;;;;;;;;15.20;82.30;;;;;;4955472;28;20864;-84
2022/05/01 07:45:26;;;;;;;;;;;15.20;81.60;;;;;;4966203;28;19935;-84
2022/05/01 07:47:58;;;;;;;;;;;15.20;82.60;;;;;;4966853;28;19934;-84
2022/05/01 07:50:27;;;;;;;;;;;15.20;81.40;;;;;;4970872;28;20380;-84
2022/05/01 07:52:54;;;;;;;;;;;15.20;80.80;;;;;;4972815;28;19930;-84
2022/05/01 07:55:22;;;;;;;;;;;15.20;81.60;;;;;;4944572;28;19930;-84
2022/05/01 07:57:49;;;;;;;;;;;15.20;81.50;;;;;;4969338;28;20242;-84
2022/05/01 08:00:17;;;;;;;;;;;15.20;82.50;;;;;;4966443;28;19930;-84
2022/05/01 08:05:31;;;;;;;;;;;15.10;80.70;;;;;;4970887;28;19934;-85
2022/05/01 08:07:58;;;;;;;;;;;15.10;81.10;;;;;;4969574;28;19935;-84
2022/05/01 08:10:26;;;;;;;;;;;15.30;81.00;;;;;;4976020;28;19933;-85
2022/05/01 08:12:56;;;;;;;;;;;15.20;80.30;;;;;;4977026;28;19930;-84
2022/05/01 08:15:24;;;;;;;;;;;14.30;80.20;;;;;;4974157;28;19930;-84
2022/05/01 08:21:05;;;;;;;;;;;15.30;79.90;;;;;;4982815;28;19922;-85
2022/05/01 08:23:39;;;;;;;;;;;15.30;79.60;;;;;;4957204;28;19930;-85
2022/05/01 08:26:07;;;;;;;;;;;15.30;79.90;;;;;;4955834;28;19926;-85
2022/05/01 08:28:35;;;;;;;;;;;15.40;80.00;;;;;;4977275;28;19937;-85
2022/05/01 08:31:03;;;;;;;;;;;15.60;80.10;;;;;;4955091;28;19965;-84
2022/05/01 08:33:31;;;;;;;;;;;15.50;78.80;;;;;;4957715;28;19945;-84
2022/05/01 08:35:59;;;;;;;;;;;15.60;78.90;;;;;;4974005;28;19930;-84
2022/05/01 08:38:27;;;;;;;;;;;15.60;77.40;;;;;;4958447;28;19933;-84
2022/05/01 08:40:56;;;;;;;;;;;15.60;77.00;;;;;;4975061;28;19927;-84
2022/05/01 08:43:24;;;;;;;;;;;15.60;77.00;;;;;;4974721;28;19952;-84
2022/05/01 08:46:01;;;;;;;;;;;15.60;77.00;;;;;;4970131;28;19938;-84
2022/05/01 08:48:39;;;;;;;;;;;15.70;76.30;;;;;;4956186;28;19950;-83
2022/05/01 08:51:07;;;;;;;;;;;15.90;76.70;;;;;;4959242;28;19930;-85
2022/05/01 08:53:36;;;;;;;;;;;15.90;76.90;;;;;;4956761;28;19931;-84
2022/05/01 08:56:07;;;;;;;;;;;15.90;76.00;;;;;;4959302;28;19926;-84
2022/05/01 08:58:36;;;;;;;;;;;16.00;75.60;;;;;;4957609;28;19937;-85
2022/05/01 09:01:08;;;;;;;;;;;16.10;75.90;;;;;;4975525;28;19941;-85
2022/05/01 09:03:36;;;;;;;;;;;16.20;75.20;;;;;;4976351;28;19937;-85
2022/05/01 09:06:05;;;;;;;;;;;16.20;74.70;;;;;;4940617;28;20215;-84
2022/05/01 09:08:33;;;;;;;;;;;16.30;74.80;;;;;;4970342;28;19949;-85
2022/05/01 09:12:49;;;;;;;;;;;16.60;75.20;;;;;;4970958;28;19930;-85
2022/05/01 09:13:48;;;;;;;;;;;15.60;73.30;;;;;;4956606;28;19926;-86
2022/05/01 09:16:15;;;;;;;;;;;16.40;73.80;;;;;;4939459;28;20320;-86
2022/05/01 09:18:46;;;;;;;;;;;16.40;74.00;;;;;;4956203;28;19941;-85
2022/05/01 09:21:14;;;;;;;;;;;16.40;73.10;;;;;;4972028;28;20018;-85
2022/05/01 09:23:49;;;;;;;;;;;16.40;73.50;;;;;;4937824;28;19934;-84
2022/05/01 09:26:17;;;;;;;;;;;16.40;73.70;;;;;;4965559;28;19933;-85
2022/05/01 09:28:52;;;;;;;;;;;16.40;73.60;;;;;;4953153;28;19930;-86
2022/05/01 09:31:38;;;;;;;;;;;16.40;73.70;;;;;;4957414;28;19929;-86
2022/05/01 09:34:23;;;;;;;;;;;16.40;73.40;;;;;;4925104;28;19930;-84
2022/05/01 09:36:50;;;;;;;;;;;16.40;73.70;;;;;;4967537;28;19926;-85
2022/05/01 09:39:18;;;;;;;;;;;16.40;73.80;;;;;;4967829;28;19941;-84
2022/05/01 09:41:48;;;;;;;;;;;16.50;73.90;;;;;;4956975;28;19930;-84
2022/05/01 09:44:16;;;;;;;;;;;16.50;74.10;;;;;;4952529;28;19930;-85
2022/05/01 09:46:44;;;;;;;;;;;16.50;73.70;;;;;;4968105;28;19934;-85
2022/05/01 09:49:15;;;;;;;;;;;16.70;73.70;;;;;;4970794;28;20400;-86
2022/05/01 09:51:53;;;;;;;;;;;16.60;73.40;;;;;;4949883;28;19930;-87
2022/05/01 09:54:25;;;;;;;;;;;16.60;73.30;;;;;;4967108;28;19934;-85
2022/05/01 09:56:55;;;;;;;;;;;16.60;73.90;;;;;;4952021;28;19942;-85
2022/05/01 09:59:24;;;;;;;;;;;16.70;74.10;;;;;;4973113;28;19945;-85
2022/05/01 10:02:02;;;;;;;;;;;16.80;73.70;;;;;;4972509;28;19926;-85
2022/05/01 10:04:31;;;;;;;;;;;16.80;73.50;;;;;;4955470;28;19933;-84
2022/05/01 10:07:00;;;;;;;;;;;16.90;73.30;;;;;;4975152;28;19930;-85
2022/05/01 10:09:28;;;;;;;;;;;17.00;72.90;;;;;;4974904;28;19926;-85
2022/05/01 10:11:57;;;;;;;;;;;17.10;72.80;;;;;;4973520;28;19926;-84
2022/05/01 10:14:26;;;;;;;;;;;17.20;73.00;;;;;;4974853;28;20322;-83
2022/05/01 10:16:55;;;;;;;;;;;17.30;72.10;;;;;;4973650;28;20291;-84
2022/05/01 10:19:26;;;;;;;;;;;17.40;72.80;;;;;;4952777;28;19938;-84
2022/05/01 10:22:00;;;;;;;;;;;17.50;73.20;;;;;;4956344;28;19934;-84
2022/05/01 10:24:28;;;;;;;;;;;17.70;72.90;;;;;;4973128;28;19934;-85
2022/05/01 10:27:15;;;;;;;;;;;17.80;72.80;;;;;;4956997;28;19926;-85
2022/05/01 10:32:41;;;;;;;;;;;18.00;71.30;;;;;;4968148;28;19933;-84
2022/05/01 10:35:47;;;;;;;;;;;18.00;71.30;;;;;;4965354;28;20465;-85
2022/05/01 10:38:17;;;;;;;;;;;18.00;71.30;;;;;;4964476;28;19945;-84
2022/05/01 10:40:45;;;;;;;;;;;18.10;71.60;;;;;;4962847;28;20176;-85
2022/05/01 10:43:24;;;;;;;;;;;18.10;70.70;;;;;;4948115;28;19945;-84
2022/05/01 10:45:56;;;;;;;;;;;18.30;71.10;;;;;;4943165;28;19930;-85
2022/05/01 10:48:37;;;;;;;;;;;18.50;70.00;;;;;;4929013;28;19941;-85
2022/05/01 10:51:24;;;;;;;;;;;18.50;70.00;;;;;;4957389;28;19938;-84
2022/05/01 10:54:09;;;;;;;;;;;18.60;69.70;;;;;;4945110;28;19930;-85
2022/05/01 10:56:44;;;;;;;;;;;18.60;69.50;;;;;;4962808;28;20215;-85
2022/05/01 10:59:35;;;;;;;;;;;18.70;69.50;;;;;;4943590;28;19933;-85
2022/05/01 11:02:22;;;;;;;;;;;18.70;69.60;;;;;;4938783;28;19933;-85
2022/05/01 11:04:52;;;;;;;;;;;18.60;69.20;;;;;;4969380;28;19926;-85
2022/05/01 11:07:20;;;;;;;;;;;18.60;69.80;;;;;;4931773;28;19930;-85
2022/05/01 11:09:49;;;;;;;;;;;18.50;69.20;;;;;;4961982;28;19926;-85
2022/05/01 11:12:19;;;;;;;;;;;18.40;69.80;;;;;;4956233;28;20314;-85
2022/05/01 11:14:52;;;;;;;;;;;18.30;70.00;;;;;;4951447;28;19930;-84
2022/05/01 11:17:49;;;;;;;;;;;18.20;70.80;;;;;;4919950;29;20004;-87
2022/05/01 11:20:21;;;;;;;;;;;18.10;70.30;;;;;;4934099;29;19927;-85
2022/05/01 11:22:49;;;;;;;;;;;17.90;70.30;;;;;;4949127;29;19930;-86
2022/05/01 11:25:19;;;;;;;;;;;17.70;70.80;;;;;;4927025;29;19934;-85
2022/05/01 11:27:48;;;;;;;;;;;17.60;71.20;;;;;;4930246;29;20231;-88
2022/05/01 11:30:32;;;;;;;;;;;17.40;71.70;;;;;;4931553;29;19930;-84
2022/05/01 11:33:10;;;;;;;;;;;17.20;72.20;;;;;;4914189;29;19931;-84
2022/05/01 11:35:52;;;;;;;;;;;17.10;72.60;;;;;;4930281;28;19930;-85
2022/05/01 11:38:22;;;;;;;;;;;17.10;73.00;;;;;;4943713;28;19967;-85
2022/05/01 11:40:57;;;;;;;;;;;17.10;73.40;;;;;;4924950;29;19948;-87
2022/05/01 11:43:28;;;;;;;;;;;17.30;73.20;;;;;;4946501;29;19954;-87
2022/05/01 11:45:56;;;;;;;;;;;17.40;73.10;;;;;;4928181;29;19931;-84
2022/05/01 11:48:25;;;;;;;;;;;17.50;72.50;;;;;;4945229;29;19934;-86
2022/05/01 11:50:53;;;;;;;;;;;17.50;72.60;;;;;;4946896;29;19930;-85
2022/05/01 11:53:22;;;;;;;;;;;17.50;72.80;;;;;;4944213;29;20002;-84
2022/05/01 12:04:32;;;;;;;;;;;17.10;74.00;;;;;;4927510;29;19942;-85
2022/05/01 12:07:04;;;;;;;;;;;17.10;74.40;;;;;;4930172;29;19942;-85
2022/05/01 12:09:37;;;;;;;;;;;17.00;75.10;;;;;;4930975;29;19930;-85
2022/05/01 12:12:11;;;;;;;;;;;16.80;76.30;;;;;;4922317;28;19945;-86
2022/05/01 12:14:39;;;;;;;;;;;16.70;77.10;;;;;;4967271;28;19934;-84
2022/05/01 12:17:16;;;;;;;;;;;16.60;78.70;;;;;;4966641;28;19937;-87
2022/05/01 12:19:49;;;;;;;;;;;16.40;79.50;;;;;;4949021;28;19926;-86
2022/05/01 12:22:18;;;;;;;;;;;16.30;79.90;;;;;;4945784;28;19961;-86
2022/05/01 12:24:47;;;;;;;;;;;16.20;79.70;;;;;;4960887;28;19953;-85
2022/05/01 12:27:16;;;;;;;;;;;16.10;80.60;;;;;;4947016;28;19941;-85
2022/05/01 12:29:49;;;;;;;;;;;16.10;80.40;;;;;;4945502;28;19930;-85
2022/05/01 12:32:17;;;;;;;;;;;16.10;80.90;;;;;;4932117;28;19926;-85
2022/05/01 12:34:48;;;;;;;;;;;16.00;81.20;;;;;;4945209;28;19934;-85
2022/05/01 12:37:46;;;;;;;;;;;15.90;80.80;;;;;;4963484;28;19930;-87
2022/05/01 12:40:14;;;;;;;;;;;15.70;81.40;;;;;;4925289;28;19933;-84
2022/05/01 12:45:38;;;;;;;;;;;15.50;82.40;;;;;;4605935;28;9999849;-85
2022/05/01 12:48:07;;;;;;;;;;;15.50;84.00;;;;;;4950191;28;20491;-85
2022/05/01 12:50:37;;;;;;;;;;;15.50;84.30;;;;;;4944291;28;19934;-85
2022/05/01 12:53:22;;;;;;;;;;;15.50;83.30;;;;;;4969907;28;20620;-85
2022/05/01 12:55:52;;;;;;;;;;;15.50;84.10;;;;;;4967552;28;19927;-87
2022/05/01 12:58:29;;;;;;;;;;;15.60;83.30;;;;;;4968925;28;19926;-83
2022/05/01 13:00:57;;;;;;;;;;;15.60;84.80;;;;;;4964227;28;19926;-85
2022/05/01 13:03:28;;;;;;;;;;;15.60;83.90;;;;;;4950078;28;20794;-84
2022/05/01 13:06:02;;;;;;;;;;;14.00;83.50;;;;;;4951465;28;19937;-86
2022/05/01 13:08:31;;;;;;;;;;;15.80;83.10;;;;;;4948336;28;19930;-84
2022/05/01 13:11:17;;;;;;;;;;;15.90;83.20;;;;;;4954424;28;19934;-85
2022/05/01 13:13:50;;;;;;;;;;;16.00;82.20;;;;;;4957563;28;20481;-84
2022/05/01 13:16:22;;;;;;;;;;;16.00;83.00;;;;;;4967723;28;19926;-85
2022/05/01 13:18:54;;;;;;;;;;;16.00;83.50;;;;;;4948169;28;19934;-85
2022/05/01 13:21:25;;;;;;;;;;;16.00;83.30;;;;;;4949250;28;19941;-85
2022/05/01 13:23:58;;;;;;;;;;;15.90;84.20;;;;;;4917578;28;19933;-85
2022/05/01 13:26:33;;;;;;;;;;;15.00;83.70;;;;;;4947574;28;19930;-86
2022/05/01 13:29:00;;;;;;;;;;;16.00;84.90;;;;;;4949661;28;20373;-85
2022/05/01 13:31:28;;;;;;;;;;;16.10;84.80;;;;;;4967490;28;19930;-84
2022/05/01 13:33:56;;;;;;;;;;;16.10;84.40;;;;;;4965932;28;19938;-84
2022/05/01 13:36:23;;;;;;;;;;;16.30;83.90;;;;;;4958404;28;19937;-85
2022/05/01 13:38:51;;;;;;;;;;;16.40;84.30;;;;;;4937004;28;19934;-86
2022/05/01 13:46:54;;;;;;;;;;;16.60;83.20;;;;;;4969219;28;19934;-85
2022/05/01 13:49:22;;;;;;;;;;;16.70;83.40;;;;;;4967480;28;19934;-86
2022/05/01 13:51:50;;;;;;;;;;;16.60;83.10;;;;;;4968217;28;20431;-86
2022/05/01 13:54:18;;;;;;;;;;;16.50;83.30;;;;;;4948592;28;19930;-87
2022/05/01 13:56:45;;;;;;;;;;;16.50;83.30;;;;;;4949611;28;19934;-84
2022/05/01 13:59:14;;;;;;;;;;;16.50;84.00;;;;;;4951119;28;19933;-86
2022/05/01 14:01:42;;;;;;;;;;;16.40;84.40;;;;;;4966080;28;20289;-86
2022/05/01 14:04:10;;;;;;;;;;;16.40;85.10;;;;;;4964679;28;19941;-86
2022/05/01 14:06:44;;;;;;;;;;;16.40;85.30;;;;;;4949282;28;19929;-86
2022/05/01 14:09:12;;;;;;;;;;;16.50;86.50;;;;;;4949640;28;21483;-85
2022/05/01 14:11:40;;;;;;;;;;;16.50;86.90;;;;;;4968109;28;20297;-87
2022/05/01 14:14:07;;;;;;;;;;;17.00;86.70;;;;;;4965399;28;19926;-86
2022/05/01 14:16:35;;;;;;;;;;;16.80;86.50;;;;;;4966835;28;19937;-85
2022/05/01 14:19:02;;;;;;;;;;;16.90;85.10;;;;;;4974762;28;19946;-84
2022/05/01 14:21:30;;;;;;;;;;;16.90;85.90;;;;;;4974137;28;20547;-84
2022/05/01 14:23:58;;;;;;;;;;;16.80;85.90;;;;;;4910781;29;19941;-90
2022/05/01 14:26:26;;;;;;;;;;;16.80;85.90;;;;;;4942602;28;20325;-88
2022/05/01 14:28:54;;;;;;;;;;;16.50;86.00;;;;;;4945484;28;19927;-88
2022/05/01 14:31:35;;;;;;;;;;;16.40;86.70;;;;;;4946973;28;20220;-90
2022/05/01 14:34:37;;;;;;;;;;;16.20;87.00;;;;;;4945783;28;20590;-88
2022/05/01 14:37:06;;;;;;;;;;;15.70;87.50;;;;;;4926777;28;19926;-89
2022/05/01 14:39:38;;;;;;;;;;;16.00;88.40;;;;;;4929938;29;19927;-87
2022/05/01 14:42:13;;;;;;;;;;;16.00;87.40;;;;;;4948018;28;19938;-87
2022/05/01 14:44:46;;;;;;;;;;;16.40;87.50;;;;;;4944142;28;19933;-88
2022/05/01 14:47:21;;;;;;;;;;;16.30;87.90;;;;;;4972561;28;19953;-89
2022/05/01 14:49:50;;;;;;;;;;;16.50;87.70;;;;;;4931087;28;19941;-88
2022/05/01 14:52:19;;;;;;;;;;;16.60;87.30;;;;;;4960613;28;20011;-90
2022/05/01 14:54:48;;;;;;;;;;;16.70;87.70;;;;;;4952579;28;20365;-89
2022/05/01 14:57:19;;;;;;;;;;;16.80;87.50;;;;;;4964274;28;19937;-88
2022/05/01 15:08:22;;;;;;;;;;;16.90;84.40;;;;;;4948966;28;19930;-87
2022/05/01 15:10:50;;;;;;;;;;;16.80;83.90;;;;;;4965627;28;19942;-88
2022/05/01 15:13:17;;;;;;;;;;;17.10;84.60;;;;;;4948121;28;19930;-87
2022/05/01 15:16:00;;;;;;;;;;;17.00;84.30;;;;;;4946480;28;20262;-90
2022/05/01 15:18:46;;;;;;;;;;;17.10;84.30;;;;;;4974163;28;20108;-90
2022/05/01 15:24:31;;;;;;;;;;;17.00;84.60;;;;;;4980210;28;19926;-89
2022/05/01 15:27:02;;;;;;;;;;;16.60;85.00;;;;;;4948134;28;19926;-89
2022/05/01 15:29:35;;;;;;;;;;;16.50;86.20;;;;;;4951870;28;19930;-87
2022/05/01 15:32:07;;;;;;;;;;;16.30;86.20;;;;;;4951855;28;19934;-86
2022/05/01 15:34:39;;;;;;;;;;;16.20;87.00;;;;;;4982186;28;20392;-88
2022/05/01 15:37:08;;;;;;;;;;;16.00;87.60;;;;;;4955990;28;19936;-88
2022/05/01 15:39:41;;;;;;;;;;;15.90;87.70;;;;;;4953497;28;19944;-88
2022/05/01 15:42:19;;;;;;;;;;;15.80;88.30;;;;;;4962406;28;20932;-90